TimeCDT,TemperatureF,Dew PointF,Humidity,Sea Level PressureIn,VisibilityMPH,Wind Direction,Wind SpeedMPH,Gust SpeedMPH,PrecipitationIn,Events,Conditions,WindDirDegrees,DateUTC
12:48 AM,57.2,53.6,88,29.81,5.0,Calm,Calm,-,N/A,,Clear,0,2012-10-16 05:48:00
12:50 AM,62,58,81,29.80,5,West,2.2,,,,Partly Cloudy,260,2012-10-16 05:50:00
1:43 AM,53.6,53.6,100,30.21,5.0,Calm,Calm,-,N/A,,Clear,0,2012-10-16 06:43:00
2:41 AM,51.8,51.8,100,30.20,5.0,Calm,Calm,-,N/A,,Clear,0,2012-10-16 07:41:00
3:45 AM,58,56,90,29.81,5,WSW,4.5,,,,,240,2012-10-16 08:45:00
4:44 AM,51.8,51.8,100,30.18,5.0,Calm,Calm,-,N/A,,Clear,0,2012-10-16 09:44:00
5:41 AM,51.8,50.0,94,30.18,5.0,Calm,Calm,-,N/A,,Clear,0,2012-10-16 10:41:00
6:45 AM,56,54,91,29.87,5,South,4.5,,,,Partly Cloudy,180,2012-10-16 11:45:00
6:45 AM,50.0,50.0,100,29.83,5.0,Calm,Calm,-,N/A,,Clear,0,2012-10-16 11:45:00
7:43 AM,51.8,51.8,100,30.20,5.0,Calm,Calm,-,N/A,,Mostly Cloudy,0,2012-10-16 12:43:00
8:49 AM,53.6,53.6,100,30.21,5.0,Calm,Calm,-,N/A,,Partly Cloudy,0,2012-10-16 13:49:00
9:47 AM,62.6,53.6,72,29.78,6.0,Calm,Calm,-,N/A,,Scattered Clouds,0,2012-10-16 14:47:00
9:55 AM,63,57,74,29.93,6,SSW,2.2,,,,,210,2012-10-16 14:55:00
10:43 AM,66.2,57.2,73,30.22,6.0,Calm,Calm,-,N/A,,Clear,0,2012-10-16 15:43:00
11:45 AM,71.6,57.2,60,30.20,7.0,SW,3.5,-,N/A,,Scattered Clouds,230,2012-10-16 16:45:00
12:46 PM,75.2,55.4,50,29.75,8.0,West,9.2,-,N/A,,Scattered Clouds,260,2012-10-16 17:46:00
12:55 PM,77,58,41,29.88,9,SSE,2.2,,,,Partly Cloudy,160,2012-10-16 17:55:00
1:45 PM,75.2,55.4,50,30.16,8.0,SW,10.4,-,N/A,,Mostly Cloudy,220,2012-10-16 18:45:00
2:45 PM,77.0,53.6,44,30.12,8.0,SSW,6.9,-,N/A,,Mostly Cloudy,210,2012-10-16 19:45:00
3:50 PM,81,54,28,29.71,7,South,4.5,,,,Partly Cloudy,170,2012-10-16 20:50:00
3:53 PM,78.8,55.4,44,29.74,8.0,South,8.1,-,N/A,,Scattered Clouds,190,2012-10-16 20:53:00
4:49 PM,77.0,55.4,47,30.08,8.0,South,9.2,-,N/A,,Clear,190,2012-10-16 21:49:00
5:40 PM,75.2,57.2,53,30.08,8.0,SSE,10.4,-,N/A,,Clear,160,2012-10-16 22:40:00
6:48 PM,69.8,59.0,68,29.73,7.0,South,8.1,-,N/A,,Clear,180,2012-10-16 23:48:00
6:50 PM,70,59,60,29.65,7,South,4.5,,,,Partly Cloudy,170,2012-10-16 23:50:00
7:44 PM,66.2,57.2,73,30.11,7.0,South,11.5,-,N/A,,Clear,180,2012-10-17 00:44:00
8:46 PM,64.4,57.2,77,30.13,7.0,SW,8.1,-,N/A,,Clear,230,2012-10-17 01:46:00
9:48 PM,64.4,57.2,77,29.75,6.0,SSW,4.6,-,N/A,,Scattered Clouds,210,2012-10-17 02:48:00
9:50 PM,65,58,71,29.71,5,SSW,2.2,,,,Partly Cloudy,210,2012-10-17 02:50:00
10:43 PM,64.4,59.0,83,30.19,6.0,SSW,9.2,-,N/A,,Clear,200,2012-10-17 03:43:00
11:42 PM,64.4,59.0,83,30.19,6.0,Variable,2.3,-,N/A,,Clear,0,2012-10-17 04:42:00